Rio Bamba, Argentina
Current Conditions -  °F | °C
As of 12:00 PM on Sunday 23 Nov 2014 (Local Time) from SAOC Reporting Station
Clear Clear  
Wind Chill: 82°   Ceiling: Unl
Heat Index: 82°   Visibility: 6mi
Dew Point: 50°   Wind: 23mph
Humidity: 32%   Direction: 360°N
Pressure: 29.74"   Gusts: 37mph
Location:  34.06°S, 63.73°W
Report Text: SAOC 231500Z 36020G32KT CAVOK 28/10 Q1007
Loading
Personal Weather Stations






























Interactive Weather Map New forecast layout! Learn more

10-Day Weather Forecast

Advertisements
Track Severe Weather on mobile